createdAt,value
2022-11-27T00:00:17.570Z,286.50
2022-11-27T00:01:17.577Z,236.30
2022-11-27T00:02:17.582Z,218.60
2022-11-27T00:03:17.669Z,259.00
2022-11-27T00:04:17.598Z,262.40
2022-11-27T00:05:17.506Z,210.50
2022-11-27T00:06:17.520Z,211.90
2022-11-27T00:07:17.590Z,218.00
2022-11-27T00:08:17.483Z,229.70
2022-11-27T00:09:17.461Z,209.30
2022-11-27T00:10:17.467Z,202.30
2022-11-27T00:11:17.497Z,187.40
2022-11-27T00:12:17.445Z,197.10
2022-11-27T00:13:17.414Z,254.20
2022-11-27T00:14:17.429Z,186.20
2022-11-27T00:15:17.571Z,198.50
2022-11-27T00:16:17.470Z,246.60
2022-11-27T00:17:17.375Z,197.50
2022-11-27T00:18:17.361Z,288.70
2022-11-27T00:19:17.346Z,190.50
2022-11-27T00:20:17.359Z,248.60
2022-11-27T00:21:17.380Z,184.70
2022-11-27T00:22:17.348Z,212.90
2022-11-27T00:23:17.312Z,224.90
2022-11-27T00:24:17.294Z,227.50
2022-11-27T00:25:17.289Z,239.80
2022-11-27T00:26:17.317Z,315.60
2022-11-27T00:27:17.271Z,278.50
2022-11-27T00:28:17.233Z,264.90
2022-11-27T00:29:17.245Z,273.40
2022-11-27T00:30:17.219Z,289.80
2022-11-27T00:31:17.360Z,302.40
2022-11-27T00:32:17.197Z,265.90
2022-11-27T00:33:17.199Z,369.40
2022-11-27T00:34:17.174Z,327.60
2022-11-27T00:35:17.180Z,340.10
2022-11-27T00:36:17.202Z,352.90
2022-11-27T00:37:17.152Z,371.70
2022-11-27T00:38:17.158Z,386.90
2022-11-27T00:39:17.122Z,396.30
2022-11-27T00:40:17.124Z,402.80
2022-11-27T00:41:17.121Z,411.50
2022-11-27T00:42:17.106Z,409.60
2022-11-27T00:43:17.079Z,394.90
2022-11-27T00:44:17.068Z,402.20
2022-11-27T00:45:17.062Z,177.50
2022-11-27T00:46:17.137Z,223.40
2022-11-27T00:47:17.051Z,194.90
2022-11-27T00:48:17.027Z,170.90
2022-11-27T00:49:17.010Z,222.80
2022-11-27T00:50:16.997Z,196.20
2022-11-27T00:51:17.010Z,150.80
2022-11-27T00:52:16.949Z,157.60
2022-11-27T00:53:16.944Z,271.60
2022-11-27T00:54:16.931Z,171.40
2022-11-27T00:55:16.947Z,154.20
2022-11-27T00:56:16.969Z,153.40
2022-11-27T00:57:16.936Z,196.80
2022-11-27T00:58:16.912Z,220.60
2022-11-27T00:59:16.905Z,193.70
2022-11-27T01:00:16.883Z,210.70
2022-11-27T01:01:16.944Z,151.00
2022-11-27T01:02:16.949Z,150.20
2022-11-27T01:03:16.957Z,150.10
2022-11-27T01:04:16.842Z,170.10
2022-11-27T01:05:16.853Z,180.10
2022-11-27T01:06:16.848Z,271.60
2022-11-27T01:07:16.864Z,154.10
2022-11-27T01:08:16.780Z,146.40
2022-11-27T01:09:16.789Z,209.20
2022-11-27T01:10:16.756Z,206.80
2022-11-27T01:11:16.787Z,223.40
2022-11-27T01:12:16.749Z,201.00
2022-11-27T01:13:16.722Z,160.70
2022-11-27T01:14:16.704Z,152.70
2022-11-27T01:15:16.698Z,147.40
2022-11-27T01:16:16.783Z,133.80
2022-11-27T01:17:16.684Z,129.10
2022-11-27T01:18:16.701Z,136.20
2022-11-27T01:19:16.664Z,208.10
2022-11-27T01:20:16.638Z,199.50
2022-11-27T01:21:16.673Z,196.70
2022-11-27T01:22:16.646Z,264.20
2022-11-27T01:23:16.611Z,278.30
2022-11-27T01:24:16.584Z,228.20
2022-11-27T01:25:16.589Z,170.20
2022-11-27T01:26:16.596Z,156.90
2022-11-27T01:27:16.563Z,108.10
2022-11-27T01:28:16.562Z,176.50
2022-11-27T01:29:16.535Z,193.40
2022-11-27T01:30:16.526Z,243.10
2022-11-27T01:31:16.606Z,280.00
2022-11-27T01:32:16.546Z,232.80
2022-11-27T01:33:16.498Z,219.60
2022-11-27T01:34:16.480Z,107.10
2022-11-27T01:35:16.475Z,159.10
2022-11-27T01:36:16.460Z,331.00
2022-11-27T01:37:16.478Z,209.30
2022-11-27T01:38:16.441Z,205.90
2022-11-27T01:39:16.437Z,144.70
2022-11-27T01:40:16.424Z,137.40
2022-11-27T01:41:16.393Z,117.30
2022-11-27T01:42:16.425Z,243.80
2022-11-27T01:43:16.373Z,266.70
2022-11-27T01:44:16.382Z,163.70
2022-11-27T01:45:16.354Z,124.30
2022-11-27T01:46:16.388Z,123.70
2022-11-27T01:47:16.371Z,129.00
2022-11-27T01:48:16.346Z,127.20
2022-11-27T01:49:16.323Z,147.60
2022-11-27T01:50:16.300Z,217.60
2022-11-27T01:51:16.317Z,309.30
2022-11-27T01:52:16.305Z,157.00
2022-11-27T01:53:16.278Z,138.60
2022-11-27T01:54:16.257Z,226.90
2022-11-27T01:55:16.243Z,223.50
2022-11-27T01:56:16.234Z,158.30
2022-11-27T01:57:16.245Z,163.40
2022-11-27T01:58:16.197Z,187.60
2022-11-27T01:59:16.189Z,182.00
2022-11-27T02:00:16.174Z,246.00
2022-11-27T02:01:16.256Z,180.40
2022-11-27T02:02:16.293Z,173.00
2022-11-27T02:03:16.281Z,195.60
2022-11-27T02:04:16.143Z,226.50
2022-11-27T02:05:16.116Z,247.40
2022-11-27T02:06:16.109Z,173.30
2022-11-27T02:07:16.188Z,157.40
2022-11-27T02:08:16.093Z,164.70
2022-11-27T02:09:16.081Z,212.00
2022-11-27T02:10:16.075Z,208.60
2022-11-27T02:11:16.061Z,231.50
2022-11-27T02:12:16.076Z,216.90
2022-11-27T02:13:16.028Z,171.30
2022-11-27T02:14:16.027Z,181.80
2022-11-27T02:15:16.018Z,215.00
2022-11-27T02:16:18.146Z,225.80
2022-11-27T02:17:16.040Z,229.80
2022-11-27T02:18:15.966Z,192.20
2022-11-27T02:19:15.966Z,192.10
2022-11-27T02:20:15.955Z,226.20
2022-11-27T02:21:15.952Z,217.40
2022-11-27T02:22:15.953Z,199.40
2022-11-27T02:23:15.927Z,204.30
2022-11-27T02:24:15.912Z,247.40
2022-11-27T02:25:15.893Z,208.70
2022-11-27T02:26:15.898Z,206.70
2022-11-27T02:27:15.924Z,214.80
2022-11-27T02:28:15.894Z,219.80
2022-11-27T02:29:15.861Z,212.60
2022-11-27T02:30:15.840Z,202.00
2022-11-27T02:31:15.882Z,237.00
2022-11-27T02:32:15.805Z,231.10
2022-11-27T02:33:15.834Z,212.80
2022-11-27T02:34:15.797Z,330.30
2022-11-27T02:35:15.796Z,257.80
2022-11-27T02:36:15.768Z,278.80
2022-11-27T02:37:15.744Z,363.50
2022-11-27T02:38:15.777Z,267.90
2022-11-27T02:39:15.733Z,331.50
2022-11-27T02:40:15.723Z,353.60
2022-11-27T02:41:15.712Z,371.90
2022-11-27T02:42:15.701Z,368.40
2022-11-27T02:43:15.727Z,368.10
2022-11-27T02:44:15.672Z,368.00
2022-11-27T02:45:15.674Z,392.10
2022-11-27T02:46:15.699Z,392.80
2022-11-27T02:47:15.646Z,401.60
2022-11-27T02:48:15.658Z,407.60
2022-11-27T02:49:15.631Z,411.60
2022-11-27T02:50:15.607Z,420.70
2022-11-27T02:51:15.601Z,432.80
2022-11-27T02:52:15.589Z,441.40
2022-11-27T02:53:15.635Z,442.20
2022-11-27T02:54:15.566Z,444.50
2022-11-27T02:55:15.559Z,453.00
2022-11-27T02:56:15.540Z,455.20
2022-11-27T02:57:15.530Z,476.40
2022-11-27T02:58:15.551Z,470.50
2022-11-27T02:59:15.509Z,507.40
2022-11-27T03:00:15.503Z,617.60
2022-11-27T03:01:15.589Z,636.00
2022-11-27T03:02:15.547Z,615.70
2022-11-27T03:03:15.565Z,612.20
2022-11-27T03:04:15.453Z,616.70
2022-11-27T03:05:15.446Z,623.20
2022-11-27T03:06:15.423Z,615.60
2022-11-27T03:07:15.474Z,602.10
2022-11-27T03:08:15.431Z,600.00
2022-11-27T03:09:15.397Z,605.90
2022-11-27T03:10:15.389Z,603.70
2022-11-27T03:11:15.381Z,610.90
2022-11-27T03:12:15.360Z,621.60
2022-11-27T03:13:15.395Z,641.80
2022-11-27T03:14:15.337Z,659.10
2022-11-27T03:15:15.338Z,778.70
2022-11-27T03:16:15.391Z,999.90
2022-11-27T03:17:15.310Z,988.50
2022-11-27T03:18:15.300Z,999.90
2022-11-27T03:19:15.316Z,999.90
2022-11-27T03:20:15.274Z,999.90
2022-11-27T03:21:15.270Z,999.90
2022-11-27T03:22:15.252Z,999.90
2022-11-27T03:23:15.237Z,999.90
2022-11-27T03:24:15.269Z,999.90
2022-11-27T03:25:15.227Z,999.90
2022-11-27T03:26:15.216Z,999.90
2022-11-27T03:27:15.202Z,977.70
2022-11-27T03:28:15.202Z,955.20
2022-11-27T03:29:15.233Z,946.70
2022-11-27T03:30:15.162Z,813.20
2022-11-27T03:31:15.194Z,476.00
2022-11-27T03:32:15.135Z,452.20
2022-11-27T03:33:15.146Z,487.70
2022-11-27T03:34:15.163Z,489.50
2022-11-27T03:35:15.120Z,466.90
2022-11-27T03:36:15.102Z,458.60
2022-11-27T03:37:15.109Z,467.30
2022-11-27T03:38:15.074Z,468.60
2022-11-27T03:39:15.103Z,462.60
2022-11-27T03:40:15.039Z,450.80
2022-11-27T03:41:15.037Z,861.60
2022-11-27T03:42:15.016Z,799.80
2022-11-27T03:43:15.022Z,749.80
2022-11-27T03:44:15.044Z,292.00
2022-11-27T03:45:15.006Z,417.50
2022-11-27T03:46:15.087Z,410.30
2022-11-27T03:47:15.030Z,384.00
2022-11-27T03:48:14.979Z,464.10
2022-11-27T03:49:14.994Z,421.20
2022-11-27T03:50:14.940Z,468.50
2022-11-27T03:51:14.948Z,394.10
2022-11-27T03:52:14.919Z,399.40
2022-11-27T03:53:14.925Z,464.00
2022-11-27T03:54:14.944Z,466.60
2022-11-27T03:55:14.879Z,477.50
2022-11-27T03:56:14.876Z,464.30
2022-11-27T03:57:14.874Z,472.40
2022-11-27T03:58:14.876Z,470.20
2022-11-27T03:59:14.897Z,366.90
2022-11-27T04:00:14.841Z,466.40
2022-11-27T04:01:14.825Z,283.30
2022-11-27T04:02:14.887Z,386.50
2022-11-27T04:03:14.803Z,379.50
2022-11-27T04:04:14.909Z,462.30
2022-11-27T04:05:14.780Z,451.80
2022-11-27T04:06:14.759Z,393.80
2022-11-27T04:07:14.822Z,443.20
2022-11-27T04:08:14.739Z,396.40
2022-11-27T04:09:14.763Z,434.50
2022-11-27T04:10:14.726Z,439.50
2022-11-27T04:11:14.698Z,437.80
2022-11-27T04:12:14.699Z,445.00
2022-11-27T04:13:14.679Z,445.90
2022-11-27T04:14:14.699Z,435.80
2022-11-27T04:15:14.650Z,444.90
2022-11-27T04:16:14.712Z,307.70
2022-11-27T04:17:14.629Z,382.40
2022-11-27T04:18:14.637Z,383.10
2022-11-27T04:19:14.659Z,422.70
2022-11-27T04:20:14.609Z,337.80
2022-11-27T04:21:14.602Z,437.30
2022-11-27T04:22:14.584Z,411.70
2022-11-27T04:23:14.577Z,373.10
2022-11-27T04:24:14.565Z,325.90
2022-11-27T04:25:14.588Z,444.20
2022-11-27T04:26:14.526Z,385.30
2022-11-27T04:27:14.536Z,329.80
2022-11-27T04:28:14.523Z,429.20
2022-11-27T04:29:14.502Z,418.70
2022-11-27T04:30:14.528Z,415.20
2022-11-27T04:31:14.491Z,321.80
2022-11-27T04:32:14.476Z,325.90
2022-11-27T04:33:14.464Z,421.00
2022-11-27T04:34:14.441Z,377.90
2022-11-27T04:35:14.463Z,413.30
2022-11-27T04:36:14.427Z,419.70
2022-11-27T04:37:14.412Z,408.10
2022-11-27T04:38:14.399Z,415.70
2022-11-27T04:39:14.395Z,417.90
2022-11-27T04:40:14.459Z,373.70
2022-11-27T04:41:14.389Z,297.30
2022-11-27T04:42:14.352Z,295.50
2022-11-27T04:43:14.343Z,441.60
2022-11-27T04:44:14.350Z,424.90
2022-11-27T04:45:14.347Z,405.90
2022-11-27T04:46:14.371Z,416.50
2022-11-27T04:47:14.286Z,419.50
2022-11-27T04:48:14.299Z,361.80
2022-11-27T04:49:14.282Z,294.90
2022-11-27T04:50:14.296Z,285.30
2022-11-27T04:51:14.263Z,275.70
2022-11-27T04:52:14.249Z,277.40
2022-11-27T04:53:14.278Z,268.70
2022-11-27T04:54:14.229Z,268.20
2022-11-27T04:55:14.245Z,265.80
2022-11-27T04:56:14.209Z,283.30
2022-11-27T04:57:14.187Z,328.80
2022-11-27T04:58:14.181Z,404.30
2022-11-27T04:59:14.158Z,438.40
2022-11-27T05:00:14.195Z,293.60
2022-11-27T05:01:14.236Z,395.50
2022-11-27T05:02:14.139Z,408.50
2022-11-27T05:03:14.175Z,342.30
2022-11-27T05:04:14.101Z,450.60
2022-11-27T05:05:14.131Z,290.60
2022-11-27T05:06:14.080Z,405.70
2022-11-27T05:07:14.119Z,461.00
2022-11-27T05:08:14.064Z,432.50
2022-11-27T05:09:14.073Z,328.10
2022-11-27T05:10:14.089Z,387.40
2022-11-27T05:11:14.055Z,448.20
2022-11-27T05:12:14.024Z,433.50
2022-11-27T05:13:13.995Z,462.70
2022-11-27T05:14:13.996Z,453.20
2022-11-27T05:15:14.026Z,445.60
2022-11-27T05:16:14.014Z,444.20
2022-11-27T05:17:13.960Z,445.10
2022-11-27T05:18:13.941Z,440.00
2022-11-27T05:19:13.932Z,447.40
2022-11-27T05:20:13.954Z,443.40
2022-11-27T05:21:13.931Z,297.60
2022-11-27T05:22:13.901Z,338.40
2022-11-27T05:23:13.900Z,346.80
2022-11-27T05:24:13.882Z,473.60
2022-11-27T05:25:13.906Z,307.30
2022-11-27T05:26:13.885Z,328.00
2022-11-27T05:27:13.866Z,345.40
2022-11-27T05:28:13.849Z,417.20
2022-11-27T05:29:13.814Z,467.10
2022-11-27T05:30:13.852Z,296.90
2022-11-27T05:31:13.864Z,337.30
2022-11-27T05:32:13.795Z,333.80
2022-11-27T05:33:13.780Z,337.50
2022-11-27T05:34:13.781Z,435.50
2022-11-27T05:35:13.760Z,283.70
2022-11-27T05:36:13.784Z,301.50
2022-11-27T05:37:18.000Z,326.90
2022-11-27T05:38:14.724Z,443.90
2022-11-27T05:39:13.716Z,320.10
2022-11-27T05:40:13.708Z,335.50
2022-11-27T05:41:13.732Z,340.30
2022-11-27T05:42:13.687Z,342.10
2022-11-27T05:43:13.658Z,339.50
2022-11-27T05:44:13.669Z,347.10
2022-11-27T05:45:13.637Z,343.70
2022-11-27T05:46:13.728Z,345.00
2022-11-27T05:47:13.618Z,338.40
2022-11-27T05:48:13.641Z,342.60
2022-11-27T05:49:13.599Z,340.10
2022-11-27T05:50:13.599Z,343.50
2022-11-27T05:51:13.594Z,344.00
2022-11-27T05:52:13.556Z,350.20
2022-11-27T05:53:13.540Z,344.50
2022-11-27T05:54:13.542Z,344.80
2022-11-27T05:55:13.545Z,344.00
2022-11-27T05:56:13.571Z,346.30
2022-11-27T05:57:13.519Z,347.10
2022-11-27T05:58:13.519Z,348.60
2022-11-27T05:59:13.479Z,345.50
2022-11-27T06:00:13.559Z,351.20
2022-11-27T06:01:13.529Z,349.10
2022-11-27T06:02:19.556Z,352.70
2022-11-27T06:03:14.466Z,347.50
2022-11-27T06:04:13.443Z,350.50
2022-11-27T06:05:13.420Z,353.40
2022-11-27T06:06:13.466Z,351.50
2022-11-27T06:07:13.433Z,354.70
2022-11-27T06:08:13.386Z,358.80
2022-11-27T06:09:13.750Z,354.90
2022-11-27T06:10:13.364Z,347.70
2022-11-27T06:11:13.383Z,314.60
2022-11-27T06:12:13.373Z,308.40
2022-11-27T06:13:13.317Z,299.60
2022-11-27T06:14:13.318Z,304.60
2022-11-27T06:15:13.297Z,302.00
2022-11-27T06:16:13.376Z,288.60
2022-11-27T06:17:13.281Z,296.00
2022-11-27T06:18:13.284Z,317.90
2022-11-27T06:19:13.265Z,323.90
2022-11-27T06:20:13.263Z,359.10
2022-11-27T06:21:13.255Z,368.00
2022-11-27T06:22:13.229Z,349.40
2022-11-27T06:23:13.223Z,362.80
2022-11-27T06:24:13.195Z,370.50
2022-11-27T06:25:13.181Z,392.40
2022-11-27T06:26:13.204Z,413.90
2022-11-27T06:27:13.175Z,367.70
2022-11-27T06:28:13.155Z,372.80
2022-11-27T06:29:13.140Z,383.90
2022-11-27T06:30:13.133Z,390.70
2022-11-27T06:31:17.538Z,437.80
2022-11-27T06:32:14.177Z,450.00
2022-11-27T06:33:13.104Z,411.50
2022-11-27T06:34:13.109Z,483.90
2022-11-27T06:35:13.076Z,572.40
2022-11-27T06:36:13.112Z,431.40
2022-11-27T06:37:13.647Z,600.90
2022-11-27T06:38:13.060Z,428.90
2022-11-27T06:39:13.038Z,507.50
2022-11-27T06:40:13.023Z,416.10
2022-11-27T06:41:13.047Z,488.20
2022-11-27T06:42:13.020Z,613.00
2022-11-27T06:43:13.000Z,468.50
2022-11-27T06:44:12.991Z,580.50
2022-11-27T06:45:12.960Z,631.50
2022-11-27T06:46:13.017Z,626.40
2022-11-27T06:47:12.933Z,488.50
2022-11-27T06:48:12.941Z,495.20
2022-11-27T06:49:12.912Z,568.30
2022-11-27T06:50:12.912Z,999.90
2022-11-27T06:51:12.938Z,999.90
2022-11-27T06:52:12.881Z,999.90
2022-11-27T06:53:12.875Z,600.80
2022-11-27T06:54:12.867Z,586.00
2022-11-27T06:55:12.860Z,454.20
2022-11-27T06:56:12.869Z,585.20
2022-11-27T06:57:12.843Z,570.70
2022-11-27T06:58:12.810Z,601.70
2022-11-27T06:59:12.788Z,602.20
2022-11-27T07:00:12.800Z,999.90
2022-11-27T07:01:12.860Z,999.90
2022-11-27T07:02:12.812Z,999.90
2022-11-27T07:03:12.759Z,421.20
2022-11-27T07:04:12.762Z,566.90
2022-11-27T07:05:12.760Z,442.70
2022-11-27T07:06:12.796Z,513.20
2022-11-27T07:07:12.774Z,998.70
2022-11-27T07:08:12.724Z,389.70
2022-11-27T07:09:12.712Z,999.90
2022-11-27T07:10:12.684Z,446.30
2022-11-27T07:11:12.684Z,620.00
2022-11-27T07:12:12.708Z,640.30
2022-11-27T07:13:12.679Z,692.30
2022-11-27T07:14:12.638Z,656.10
2022-11-27T07:15:12.713Z,488.90
2022-11-27T07:16:12.672Z,431.60
2022-11-27T07:17:12.645Z,474.20
2022-11-27T07:18:12.598Z,999.90
2022-11-27T07:19:12.583Z,692.40
2022-11-27T07:20:12.562Z,999.90
2022-11-27T07:21:12.554Z,999.90
2022-11-27T07:22:12.585Z,716.90
2022-11-27T07:23:12.539Z,689.30
2022-11-27T07:24:12.514Z,758.60
2022-11-27T07:25:12.518Z,590.80
2022-11-27T07:26:12.505Z,711.20
2022-11-27T07:27:12.524Z,695.90
2022-11-27T07:28:17.407Z,698.40
2022-11-27T07:29:13.487Z,556.70
2022-11-27T07:30:12.444Z,466.90
2022-11-27T07:31:12.461Z,534.50
2022-11-27T07:32:12.488Z,680.90
2022-11-27T07:33:12.420Z,482.10
2022-11-27T07:34:17.121Z,538.60
2022-11-27T07:35:13.393Z,556.30
2022-11-27T07:36:12.423Z,670.90
2022-11-27T07:37:12.420Z,458.10
2022-11-27T07:38:12.395Z,605.80
2022-11-27T07:39:12.355Z,677.90
2022-11-27T07:40:13.073Z,641.80
2022-11-27T07:41:12.339Z,755.10
2022-11-27T07:42:36.995Z,656.30
2022-11-27T07:43:13.314Z,631.40
2022-11-27T07:44:12.322Z,767.40
2022-11-27T07:45:12.295Z,662.90
2022-11-27T07:46:12.324Z,786.80
2022-11-27T07:47:12.302Z,631.60
2022-11-27T07:48:12.257Z,674.70
2022-11-27T07:49:12.234Z,724.60
2022-11-27T07:50:12.252Z,771.90
2022-11-27T07:51:12.218Z,773.90
2022-11-27T07:52:12.258Z,614.50
2022-11-27T07:53:12.205Z,569.80
2022-11-27T07:54:12.208Z,565.80
2022-11-27T07:55:12.187Z,489.30
2022-11-27T07:56:12.159Z,544.70
2022-11-27T07:57:12.165Z,438.80
2022-11-27T07:58:12.187Z,484.50
2022-11-27T07:59:12.151Z,999.90
2022-11-27T08:00:12.127Z,999.90
2022-11-27T08:01:12.147Z,999.90
2022-11-27T08:02:12.089Z,999.90
2022-11-27T08:03:12.103Z,999.90
2022-11-27T08:04:12.127Z,999.90
2022-11-27T08:05:13.267Z,999.90
2022-11-27T08:06:12.066Z,292.10
2022-11-27T08:07:12.075Z,999.90
2022-11-27T08:08:12.072Z,999.90
2022-11-27T08:09:12.016Z,999.90
2022-11-27T08:10:12.025Z,999.90
2022-11-27T08:11:11.987Z,999.90
2022-11-27T08:12:11.997Z,275.80
2022-11-27T08:13:12.006Z,999.90
2022-11-27T08:14:11.957Z,999.90
2022-11-27T08:15:11.990Z,999.90
2022-11-27T08:16:11.989Z,999.90
2022-11-27T08:17:11.941Z,275.20
2022-11-27T08:18:11.958Z,999.90
2022-11-27T08:19:11.900Z,999.90
2022-11-27T08:20:11.928Z,224.30
2022-11-27T08:21:11.893Z,999.90
2022-11-27T08:22:11.891Z,226.20
2022-11-27T08:23:11.911Z,999.90
2022-11-27T08:24:11.870Z,999.90
2022-11-27T08:25:11.840Z,999.90
2022-11-27T08:26:11.838Z,999.90
2022-11-27T08:27:11.821Z,784.20
2022-11-27T08:28:11.841Z,999.90
2022-11-27T08:29:11.834Z,999.90
2022-11-27T08:30:11.765Z,999.90
2022-11-27T08:31:11.827Z,999.90
2022-11-27T08:32:11.811Z,999.90
2022-11-27T08:33:11.779Z,999.90
2022-11-27T08:34:11.733Z,999.90
2022-11-27T08:35:11.715Z,999.90
2022-11-27T08:36:17.645Z,999.90
2022-11-27T08:37:12.703Z,999.90
2022-11-27T08:38:11.733Z,999.90
2022-11-27T08:39:11.680Z,386.90
2022-11-27T08:40:11.682Z,999.90
2022-11-27T08:41:11.682Z,999.90
2022-11-27T08:42:11.645Z,999.90
2022-11-27T08:43:11.680Z,999.90
2022-11-27T08:44:11.624Z,999.90
2022-11-27T08:45:11.596Z,999.90
2022-11-27T08:46:11.688Z,999.90
2022-11-27T08:47:11.576Z,999.90
2022-11-27T08:48:11.581Z,999.90
2022-11-27T08:49:11.612Z,999.90
2022-11-27T08:50:11.562Z,999.90
2022-11-27T08:51:11.554Z,999.90
2022-11-27T08:52:11.527Z,999.90
2022-11-27T08:53:11.528Z,999.90
2022-11-27T08:54:11.544Z,999.90
2022-11-27T08:55:11.508Z,999.90
2022-11-27T08:56:11.491Z,999.90
2022-11-27T08:57:11.486Z,999.90
2022-11-27T08:58:11.461Z,999.90
2022-11-27T08:59:11.479Z,999.90
2022-11-27T09:00:11.439Z,999.90
2022-11-27T09:01:11.488Z,999.90
2022-11-27T09:02:11.416Z,999.90
2022-11-27T09:03:11.408Z,999.90
2022-11-27T09:04:11.432Z,999.90
2022-11-27T09:05:11.398Z,999.90
2022-11-27T09:06:11.381Z,999.90
2022-11-27T09:07:11.418Z,999.90
2022-11-27T09:08:11.333Z,999.90
2022-11-27T09:09:11.363Z,999.90
2022-11-27T09:10:11.440Z,999.90
2022-11-27T09:11:11.317Z,999.90
2022-11-27T09:12:11.306Z,577.40
2022-11-27T09:13:11.308Z,999.90
2022-11-27T09:14:11.311Z,784.20
2022-11-27T09:15:11.290Z,999.90
2022-11-27T09:16:11.313Z,999.90
2022-11-27T09:17:11.253Z,999.90
2022-11-27T09:18:11.223Z,999.90
2022-11-27T09:19:11.258Z,999.90
2022-11-27T09:20:11.213Z,999.90
2022-11-27T09:21:11.208Z,999.90
2022-11-27T09:22:11.190Z,784.60
2022-11-27T09:23:14.387Z,999.90
2022-11-27T09:24:11.198Z,647.00
2022-11-27T09:25:11.154Z,999.90
2022-11-27T09:26:11.157Z,452.70
2022-11-27T09:27:11.138Z,999.90
2022-11-27T09:28:11.138Z,999.90
2022-11-27T09:29:11.144Z,999.90
2022-11-27T09:30:11.090Z,999.90
2022-11-27T09:31:11.087Z,999.90
2022-11-27T09:32:11.175Z,999.90
2022-11-27T09:33:11.069Z,999.90
2022-11-27T09:34:11.083Z,999.90
2022-11-27T09:35:11.126Z,999.90
2022-11-27T09:36:11.032Z,999.90
2022-11-27T09:37:11.017Z,999.90
2022-11-27T09:38:11.012Z,999.90
2022-11-27T09:39:11.066Z,999.90
2022-11-27T09:40:10.983Z,999.90
2022-11-27T09:41:10.963Z,124.90
2022-11-27T09:42:10.956Z,999.90
2022-11-27T09:43:10.949Z,715.50
2022-11-27T09:44:10.973Z,999.90
2022-11-27T09:45:10.933Z,999.90
2022-11-27T09:46:10.998Z,555.50
2022-11-27T09:47:10.910Z,999.90
2022-11-27T09:48:10.904Z,999.90
2022-11-27T09:49:10.933Z,999.90
2022-11-27T09:50:10.883Z,999.90
2022-11-27T09:51:10.856Z,999.90
2022-11-27T09:52:10.852Z,999.90
2022-11-27T09:53:10.835Z,999.90
2022-11-27T09:54:10.866Z,999.90
2022-11-27T09:55:10.825Z,999.90
2022-11-27T09:56:10.829Z,999.90
2022-11-27T09:57:10.803Z,999.90
2022-11-27T09:58:10.784Z,999.90
2022-11-27T09:59:10.811Z,999.90
2022-11-27T10:00:10.786Z,999.90
2022-11-27T10:01:10.820Z,999.90
2022-11-27T10:02:10.861Z,999.90
2022-11-27T10:03:10.823Z,999.90
2022-11-27T10:04:10.723Z,999.90
2022-11-27T10:05:14.641Z,999.90
2022-11-27T10:06:10.690Z,999.90
2022-11-27T10:07:10.752Z,999.90
2022-11-27T10:08:10.776Z,999.90
2022-11-27T10:09:10.661Z,999.90
2022-11-27T10:10:10.698Z,999.90
2022-11-27T10:11:10.648Z,999.90
2022-11-27T10:12:10.629Z,999.90
2022-11-27T10:13:10.622Z,999.90
2022-11-27T10:14:10.604Z,999.90
2022-11-27T10:15:10.644Z,999.90
2022-11-27T10:16:10.625Z,999.90
2022-11-27T10:17:10.642Z,999.90
2022-11-27T10:18:10.676Z,999.90
2022-11-27T10:19:10.550Z,999.90
2022-11-27T10:20:10.572Z,999.90
2022-11-27T10:21:10.526Z,999.90
2022-11-27T10:22:10.510Z,999.90
2022-11-27T10:23:10.530Z,999.90
2022-11-27T10:24:10.487Z,999.90
2022-11-27T10:25:10.517Z,999.90
2022-11-27T10:26:10.467Z,999.90
2022-11-27T10:27:10.459Z,999.90
2022-11-27T10:28:10.452Z,999.90
2022-11-27T10:29:10.432Z,999.90
2022-11-27T10:30:10.441Z,643.10
2022-11-27T10:31:10.437Z,999.90
2022-11-27T10:32:26.818Z,999.90
2022-11-27T10:33:11.397Z,999.90
2022-11-27T10:34:10.371Z,999.90
2022-11-27T10:35:10.409Z,999.90
2022-11-27T10:36:10.357Z,999.90
2022-11-27T10:37:10.353Z,999.90
2022-11-27T10:38:10.343Z,999.90
2022-11-27T10:39:10.347Z,999.90
2022-11-27T10:40:10.365Z,999.90
2022-11-27T10:41:18.585Z,999.90
2022-11-27T10:42:11.308Z,999.90
2022-11-27T10:43:10.282Z,999.90
2022-11-27T10:44:10.277Z,999.90
2022-11-27T10:45:10.319Z,999.90
2022-11-27T10:46:10.299Z,999.90
2022-11-27T10:47:10.239Z,999.90
2022-11-27T10:48:10.214Z,999.90
2022-11-27T10:49:10.213Z,999.90
2022-11-27T10:50:10.230Z,832.30
2022-11-27T10:51:10.182Z,384.30
2022-11-27T10:52:10.169Z,106.40
2022-11-27T10:53:10.180Z,96.60
2022-11-27T10:54:10.173Z,104.80
2022-11-27T10:55:10.274Z,89.60
2022-11-27T10:56:10.153Z,77.20
2022-11-27T10:57:10.127Z,86.00
2022-11-27T10:58:10.114Z,89.30
2022-11-27T10:59:10.097Z,83.80
2022-11-27T11:00:10.110Z,82.30
2022-11-27T11:01:10.163Z,76.50
2022-11-27T11:02:10.163Z,67.20
2022-11-27T11:03:10.047Z,45.30
2022-11-27T11:04:35.944Z,34.50
2022-11-27T11:05:32.800Z,30.40
2022-11-27T11:06:20.618Z,22.70
2022-11-27T11:07:11.025Z,25.60
2022-11-27T11:08:09.999Z,20.10
2022-11-27T11:09:10.010Z,17.10
2022-11-27T11:10:10.021Z,20.90
2022-11-27T11:11:09.963Z,20.30
2022-11-27T11:12:09.952Z,19.80
2022-11-27T11:13:09.946Z,21.50
2022-11-27T11:14:09.926Z,22.80
2022-11-27T11:15:09.928Z,24.90
2022-11-27T11:16:14.527Z,27.50
2022-11-27T11:17:10.931Z,22.90
2022-11-27T11:18:09.902Z,18.50
2022-11-27T11:19:09.871Z,17.30
2022-11-27T11:20:09.863Z,21.60
2022-11-27T11:21:09.892Z,25.30
2022-11-27T11:22:13.305Z,22.40
2022-11-27T11:23:09.813Z,17.20
2022-11-27T11:24:09.820Z,14.80
2022-11-27T11:25:09.793Z,17.20
2022-11-27T11:26:09.822Z,17.50
2022-11-27T11:27:09.787Z,17.40
2022-11-27T11:28:09.794Z,18.40
2022-11-27T11:29:09.758Z,17.00
2022-11-27T11:30:09.753Z,20.90
2022-11-27T11:31:09.790Z,18.10
2022-11-27T11:32:09.828Z,15.70
2022-11-27T11:33:09.739Z,12.90
2022-11-27T11:34:09.703Z,12.40
2022-11-27T11:35:09.685Z,14.30
2022-11-27T11:36:09.670Z,14.20
2022-11-27T11:37:09.689Z,12.70
2022-11-27T11:38:09.668Z,11.30
2022-11-27T11:39:09.648Z,10.40
2022-11-27T11:40:14.599Z,10.60
2022-11-27T11:41:10.613Z,9.80
2022-11-27T11:42:09.661Z,10.70
2022-11-27T11:43:09.603Z,11.20
2022-11-27T11:44:09.595Z,14.10
2022-11-27T11:45:09.581Z,13.50
2022-11-27T11:46:09.707Z,14.40
2022-11-27T11:47:09.614Z,13.40
2022-11-27T11:48:09.556Z,13.70
2022-11-27T11:49:09.533Z,14.80
2022-11-27T11:50:09.515Z,14.90
2022-11-27T11:51:09.517Z,13.60
2022-11-27T11:52:09.526Z,13.20
2022-11-27T11:53:09.484Z,12.40
2022-11-27T11:54:09.478Z,11.60
2022-11-27T11:55:09.465Z,12.10
2022-11-27T11:56:09.456Z,12.20
2022-11-27T11:57:09.472Z,12.00
2022-11-27T11:58:09.427Z,11.50
2022-11-27T11:59:09.418Z,9.70
2022-11-27T12:00:09.411Z,10.60
2022-11-27T12:01:26.563Z,11.10
2022-11-27T12:02:10.451Z,10.60
2022-11-27T12:03:09.388Z,10.70
2022-11-27T12:04:09.412Z,10.70
2022-11-27T12:05:09.353Z,10.00
2022-11-27T12:06:09.354Z,10.20
2022-11-27T12:07:09.361Z,10.30
2022-11-27T12:08:09.383Z,9.70
2022-11-27T12:09:09.335Z,8.50
2022-11-27T12:10:09.303Z,8.70
2022-11-27T12:11:09.274Z,8.50
2022-11-27T12:12:09.323Z,8.80
2022-11-27T12:13:09.294Z,8.40
2022-11-27T12:14:09.254Z,8.20
2022-11-27T12:15:09.259Z,8.60
2022-11-27T12:16:09.282Z,8.50
2022-11-27T12:17:09.245Z,8.90
2022-11-27T12:18:09.222Z,9.10
2022-11-27T12:19:09.198Z,9.20
2022-11-27T12:20:09.192Z,8.10
2022-11-27T12:21:09.185Z,8.40
2022-11-27T12:22:09.195Z,8.70
2022-11-27T12:23:09.152Z,9.40
2022-11-27T12:24:09.147Z,8.50
2022-11-27T12:25:09.134Z,8.10
2022-11-27T12:26:09.113Z,7.70
2022-11-27T12:27:09.152Z,8.00
2022-11-27T12:28:09.098Z,6.80
2022-11-27T12:29:09.081Z,7.30
2022-11-27T12:30:09.075Z,8.10
2022-11-27T12:31:09.095Z,10.50
2022-11-27T12:32:09.084Z,12.40